createdAt,value
2018-09-30T00:00:01.095Z,27.37
2018-09-30T00:02:29.808Z,28.67
2018-09-30T00:04:58.482Z,29.70
2018-09-30T00:07:27.292Z,27.83
2018-09-30T00:09:56.117Z,27.27
2018-09-30T00:12:24.888Z,26.17
2018-09-30T00:14:53.584Z,30.10
2018-09-30T00:17:22.287Z,25.77
2018-09-30T00:19:51.075Z,26.53
2018-09-30T00:22:19.852Z,25.60
2018-09-30T00:25:55.111Z,26.43
2018-09-30T00:28:23.815Z,28.33
2018-09-30T00:30:52.535Z,25.80
2018-09-30T00:33:21.172Z,29.87
2018-09-30T00:35:49.908Z,28.57
2018-09-30T00:38:18.646Z,26.23
2018-09-30T00:40:47.365Z,28.87
2018-09-30T00:43:16.061Z,26.27
2018-09-30T00:45:44.801Z,29.73
2018-09-30T00:48:13.495Z,27.73
2018-09-30T00:50:42.271Z,28.63
2018-09-30T00:53:10.920Z,27.20
2018-09-30T00:55:39.642Z,30.10
2018-09-30T00:58:08.312Z,31.63
2018-09-30T01:00:37.089Z,29.00
2018-09-30T01:03:05.777Z,27.40
2018-09-30T01:05:34.810Z,27.03
2018-09-30T01:08:03.518Z,26.20
2018-09-30T01:10:32.385Z,26.07
2018-09-30T01:13:01.036Z,27.33
2018-09-30T01:15:29.699Z,29.07
2018-09-30T01:17:58.352Z,28.60
2018-09-30T01:20:27.002Z,26.60
2018-09-30T01:22:55.642Z,26.00
2018-09-30T01:25:24.332Z,30.57
2018-09-30T01:27:53.033Z,31.03
2018-09-30T01:30:21.864Z,26.17
2018-09-30T01:32:50.530Z,26.63
2018-09-30T01:35:19.427Z,27.23
2018-09-30T01:37:48.161Z,29.37
2018-09-30T01:40:16.909Z,27.10
2018-09-30T01:42:45.586Z,30.33
2018-09-30T01:45:14.268Z,26.00
2018-09-30T01:47:42.943Z,26.87
2018-09-30T01:50:11.677Z,28.23
2018-09-30T01:52:50.491Z,27.83
2018-09-30T01:55:19.287Z,25.20
2018-09-30T01:57:47.992Z,26.67
2018-09-30T02:00:17.256Z,26.90
2018-09-30T02:02:46.490Z,24.53
2018-09-30T02:05:15.801Z,28.13
2018-09-30T02:07:44.940Z,24.80
2018-09-30T02:10:13.788Z,27.43
2018-09-30T02:12:42.479Z,25.23
2018-09-30T02:15:11.264Z,22.87
2018-09-30T02:17:41.019Z,22.23
2018-09-30T02:20:09.834Z,22.20
2018-09-30T02:22:38.595Z,20.50
2018-09-30T02:25:07.361Z,25.17
2018-09-30T02:27:36.200Z,25.23
2018-09-30T02:30:06.292Z,23.50
2018-09-30T02:32:35.032Z,22.87
2018-09-30T02:35:03.867Z,24.27
2018-09-30T02:37:32.599Z,23.33
2018-09-30T02:40:01.290Z,25.07
2018-09-30T02:42:29.978Z,21.03
2018-09-30T02:44:58.761Z,23.43
2018-09-30T02:47:27.505Z,23.63
2018-09-30T02:49:56.280Z,22.70
2018-09-30T02:52:25.044Z,20.93
2018-09-30T02:54:53.946Z,21.27
2018-09-30T02:57:22.595Z,20.80
2018-09-30T02:59:51.292Z,18.60
2018-09-30T03:02:20.093Z,17.73
2018-09-30T03:04:48.777Z,23.77
2018-09-30T03:07:22.780Z,15.37
2018-09-30T03:09:51.475Z,18.93
2018-09-30T03:12:20.200Z,21.10
2018-09-30T03:14:48.880Z,15.87
2018-09-30T03:17:17.516Z,18.33
2018-09-30T03:19:46.243Z,13.97
2018-09-30T03:22:14.962Z,19.57
2018-09-30T03:24:43.688Z,16.70
2018-09-30T03:27:12.408Z,14.57
2018-09-30T03:29:41.281Z,14.67
2018-09-30T03:32:10.009Z,19.93
2018-09-30T03:34:38.795Z,19.57
2018-09-30T03:37:07.527Z,14.37
2018-09-30T03:39:36.330Z,17.03
2018-09-30T03:42:04.926Z,16.40
2018-09-30T03:44:33.660Z,16.00
2018-09-30T03:47:02.421Z,15.13
2018-09-30T03:49:31.121Z,15.53
2018-09-30T03:51:59.850Z,13.67
2018-09-30T03:54:28.576Z,13.53
2018-09-30T03:57:00.756Z,14.20
2018-09-30T03:59:35.801Z,12.83
2018-09-30T04:02:09.361Z,13.80
2018-09-30T04:04:38.166Z,16.50
2018-09-30T04:07:07.462Z,12.47
2018-09-30T04:09:36.265Z,12.37
2018-09-30T04:12:05.036Z,12.73
2018-09-30T04:14:33.772Z,17.53
2018-09-30T04:17:02.571Z,12.97
2018-09-30T04:19:31.187Z,14.10
2018-09-30T04:21:59.880Z,14.63
2018-09-30T04:24:28.627Z,17.47
2018-09-30T04:26:57.284Z,16.27
2018-09-30T04:29:25.996Z,12.93
2018-09-30T04:31:54.649Z,12.77
2018-09-30T04:34:23.383Z,12.67
2018-09-30T04:36:52.310Z,11.30
2018-09-30T04:39:21.007Z,12.83
2018-09-30T04:41:49.715Z,12.50
2018-09-30T04:44:18.376Z,13.40
2018-09-30T04:46:47.048Z,13.97
2018-09-30T04:49:15.940Z,15.40
2018-09-30T04:51:44.576Z,12.97
2018-09-30T04:54:13.351Z,14.63
2018-09-30T04:56:42.097Z,13.77
2018-09-30T04:59:11.392Z,14.00
2018-09-30T05:01:40.147Z,16.37
2018-09-30T05:04:08.948Z,12.77
2018-09-30T05:06:37.683Z,15.40
2018-09-30T05:09:07.533Z,16.10
2018-09-30T05:11:36.209Z,13.17
2018-09-30T05:14:04.876Z,17.87
2018-09-30T05:16:33.600Z,15.33
2018-09-30T05:19:02.244Z,14.87
2018-09-30T05:21:30.944Z,14.90
2018-09-30T05:23:59.684Z,15.07
2018-09-30T05:26:28.392Z,15.63
2018-09-30T05:28:57.159Z,17.20
2018-09-30T05:31:26.960Z,14.40
2018-09-30T05:33:55.706Z,17.70
2018-09-30T05:36:24.476Z,17.47
2018-09-30T05:38:53.195Z,17.17
2018-09-30T05:41:21.880Z,19.37
2018-09-30T05:43:50.587Z,18.20
2018-09-30T05:46:19.394Z,20.57
2018-09-30T05:48:48.167Z,18.90
2018-09-30T05:51:16.862Z,21.47
2018-09-30T05:53:45.629Z,19.67
2018-09-30T05:56:14.276Z,19.83
2018-09-30T05:58:43.015Z,35.27
2018-09-30T06:01:11.733Z,22.37
2018-09-30T06:03:40.421Z,21.90
2018-09-30T06:06:09.083Z,19.67
2018-09-30T06:08:37.932Z,19.80
2018-09-30T06:11:06.602Z,19.23
2018-09-30T06:13:35.308Z,22.67
2018-09-30T06:16:04.111Z,28.87
2018-09-30T06:18:32.726Z,24.03
2018-09-30T06:21:01.395Z,34.27
2018-09-30T06:23:30.029Z,24.17
2018-09-30T06:25:58.737Z,24.03
2018-09-30T06:28:27.477Z,22.53
2018-09-30T06:30:56.148Z,23.33
2018-09-30T06:33:24.884Z,26.77
2018-09-30T06:35:53.616Z,29.47
2018-09-30T06:38:22.260Z,26.50
2018-09-30T06:40:50.918Z,26.63
2018-09-30T06:43:19.742Z,26.87
2018-09-30T06:45:48.597Z,32.03
2018-09-30T06:48:17.332Z,26.20
2018-09-30T06:50:46.023Z,42.17
2018-09-30T06:53:14.728Z,25.97
2018-09-30T06:55:43.419Z,23.80
2018-09-30T06:58:12.080Z,31.30
2018-09-30T07:00:40.858Z,30.23
2018-09-30T07:03:09.921Z,31.30
2018-09-30T07:05:38.568Z,30.83
2018-09-30T07:08:07.243Z,26.00
2018-09-30T07:10:36.000Z,24.57
2018-09-30T07:13:04.860Z,28.53
2018-09-30T07:15:33.511Z,28.70
2018-09-30T07:18:02.236Z,22.43
2018-09-30T07:20:31.024Z,25.77
2018-09-30T07:22:59.785Z,27.83
2018-09-30T07:25:28.444Z,25.93
2018-09-30T07:27:57.250Z,27.33
2018-09-30T07:30:26.101Z,24.10
2018-09-30T07:32:54.756Z,25.33
2018-09-30T07:35:23.489Z,27.63
2018-09-30T07:37:52.207Z,26.63
2018-09-30T07:40:21.001Z,31.20
2018-09-30T07:42:49.802Z,33.37
2018-09-30T07:45:19.432Z,31.20
2018-09-30T07:47:48.100Z,29.30
2018-09-30T07:50:16.782Z,28.57
2018-09-30T07:52:45.427Z,27.93
2018-09-30T07:55:14.143Z,26.27
2018-09-30T07:57:42.890Z,25.63
2018-09-30T08:00:14.250Z,20.87
2018-09-30T08:02:42.902Z,23.77
2018-09-30T08:05:11.693Z,39.50
2018-09-30T08:07:40.428Z,24.13
2018-09-30T08:10:09.148Z,19.67
2018-09-30T08:12:37.807Z,24.50
2018-09-30T08:15:06.536Z,25.23
2018-09-30T08:17:35.257Z,24.27
2018-09-30T08:20:04.088Z,19.23
2018-09-30T08:22:32.758Z,20.43
2018-09-30T08:25:01.451Z,15.80
2018-09-30T08:27:30.100Z,17.00
2018-09-30T08:29:58.958Z,16.17
2018-09-30T08:32:27.723Z,12.53
2018-09-30T08:34:56.400Z,14.07
2018-09-30T08:37:30.352Z,15.40
2018-09-30T08:39:59.056Z,14.07
2018-09-30T08:42:27.732Z,11.27
2018-09-30T08:44:56.455Z,9.83
2018-09-30T08:47:25.254Z,11.57
2018-09-30T08:49:53.961Z,12.10
2018-09-30T08:52:22.633Z,14.57
2018-09-30T08:54:51.422Z,15.97
2018-09-30T08:57:20.290Z,10.17
2018-09-30T08:59:49.040Z,13.40
2018-09-30T09:02:17.722Z,9.80
2018-09-30T09:04:46.377Z,10.63
2018-09-30T09:07:15.044Z,12.43
2018-09-30T09:09:44.888Z,10.20
2018-09-30T09:12:13.574Z,13.47
2018-09-30T09:14:42.253Z,10.73
2018-09-30T09:17:10.996Z,12.17
2018-09-30T09:19:40.102Z,14.20
2018-09-30T09:22:08.862Z,8.87
2018-09-30T09:24:37.696Z,13.17
2018-09-30T09:27:06.365Z,12.47
2018-09-30T09:29:35.116Z,12.23
2018-09-30T09:32:03.869Z,10.60
2018-09-30T09:35:36.579Z,11.50
2018-09-30T09:38:05.327Z,10.97
2018-09-30T09:40:34.078Z,9.07
2018-09-30T09:43:02.810Z,10.53
2018-09-30T09:45:31.864Z,8.23
2018-09-30T09:48:00.595Z,7.40
2018-09-30T09:50:29.350Z,9.27
2018-09-30T09:52:58.024Z,9.10
2018-09-30T09:55:26.704Z,10.00
2018-09-30T09:57:55.562Z,10.70
2018-09-30T10:00:29.472Z,8.30
2018-09-30T10:02:58.237Z,7.93
2018-09-30T10:05:27.152Z,9.63
2018-09-30T10:07:55.908Z,10.43
2018-09-30T10:10:24.593Z,8.80
2018-09-30T10:12:53.260Z,9.27
2018-09-30T10:15:22.465Z,8.73
2018-09-30T10:17:51.216Z,9.47
2018-09-30T10:20:19.930Z,10.23
2018-09-30T10:22:49.520Z,8.87
2018-09-30T10:25:18.340Z,9.13
2018-09-30T10:27:47.129Z,8.77
2018-09-30T10:30:17.292Z,9.47
2018-09-30T10:32:46.013Z,7.13
2018-09-30T10:35:14.778Z,6.33
2018-09-30T10:37:43.445Z,7.90
2018-09-30T10:40:12.409Z,8.00
2018-09-30T10:42:41.265Z,6.60
2018-09-30T10:45:10.044Z,7.40
2018-09-30T10:47:38.688Z,6.50
2018-09-30T10:50:07.516Z,5.67
2018-09-30T10:52:36.215Z,7.23
2018-09-30T10:55:04.993Z,5.23
2018-09-30T10:57:33.737Z,6.03
2018-09-30T11:00:03.660Z,6.30
2018-09-30T11:02:32.416Z,4.00
2018-09-30T11:05:01.058Z,7.03
2018-09-30T11:07:29.780Z,6.07
2018-09-30T11:09:58.591Z,16.47
2018-09-30T11:12:27.403Z,5.43
2018-09-30T11:14:56.127Z,5.00
2018-09-30T11:17:24.817Z,6.30
2018-09-30T11:19:53.813Z,4.60
2018-09-30T11:22:22.558Z,4.07
2018-09-30T11:24:51.245Z,5.83
2018-09-30T11:27:19.975Z,5.00
2018-09-30T11:29:48.727Z,4.37
2018-09-30T11:32:17.392Z,11.77
2018-09-30T11:34:46.132Z,10.03
2018-09-30T11:37:14.865Z,7.70
2018-09-30T11:39:43.549Z,3.60
2018-09-30T11:42:12.244Z,5.87
2018-09-30T11:44:40.928Z,6.07
2018-09-30T11:47:09.612Z,5.93
2018-09-30T11:49:38.357Z,3.27
2018-09-30T11:52:07.008Z,7.10
2018-09-30T11:54:35.753Z,3.97
2018-09-30T11:57:04.456Z,5.80
2018-09-30T11:59:33.140Z,5.53
2018-09-30T12:02:01.836Z,12.27
2018-09-30T12:04:30.701Z,5.13
2018-09-30T12:06:59.362Z,7.23
2018-09-30T12:09:28.075Z,9.03
2018-09-30T12:11:56.760Z,7.67
2018-09-30T12:14:25.671Z,11.13
2018-09-30T12:16:54.360Z,7.97
2018-09-30T12:19:23.066Z,9.20
2018-09-30T12:21:52.008Z,9.77
2018-09-30T12:24:20.748Z,14.90
2018-09-30T12:26:49.452Z,15.10
2018-09-30T12:29:18.166Z,15.10
2018-09-30T12:31:47.015Z,8.43
2018-09-30T12:34:15.736Z,6.93
2018-09-30T12:36:44.394Z,12.07
2018-09-30T12:39:13.211Z,9.57
2018-09-30T12:41:41.973Z,10.67
2018-09-30T12:44:10.650Z,10.27
2018-09-30T12:46:39.391Z,15.57
2018-09-30T12:49:08.071Z,14.57
2018-09-30T12:51:36.770Z,10.83
2018-09-30T12:54:05.559Z,15.23
2018-09-30T12:56:34.400Z,11.10
2018-09-30T12:59:03.142Z,10.73
2018-09-30T13:01:31.882Z,17.50
2018-09-30T13:04:00.534Z,15.00
2018-09-30T13:06:29.274Z,12.30
2018-09-30T13:08:58.034Z,16.20
2018-09-30T13:11:26.821Z,11.20
2018-09-30T13:13:55.546Z,14.17
2018-09-30T13:16:24.261Z,13.53
2018-09-30T13:18:52.928Z,10.17
2018-09-30T13:21:21.670Z,10.67
2018-09-30T13:23:50.366Z,13.13
2018-09-30T13:26:19.108Z,12.73
2018-09-30T13:28:47.887Z,11.70
2018-09-30T13:31:16.581Z,10.03
2018-09-30T13:33:45.328Z,12.40
2018-09-30T13:36:14.097Z,11.07
2018-09-30T13:38:42.801Z,13.20
2018-09-30T13:41:11.582Z,14.77
2018-09-30T13:43:40.254Z,10.97
2018-09-30T13:46:08.988Z,12.07
2018-09-30T13:48:37.829Z,13.73
2018-09-30T13:51:06.115Z,12.57
2018-09-30T13:53:34.843Z,15.27
2018-09-30T13:56:03.634Z,10.30
2018-09-30T13:58:32.321Z,14.60
2018-09-30T14:01:01.170Z,16.33
2018-09-30T14:03:29.929Z,11.73
2018-09-30T14:05:58.640Z,9.73
2018-09-30T14:08:27.468Z,10.77
2018-09-30T14:10:56.227Z,11.77
2018-09-30T14:13:24.976Z,14.07
2018-09-30T14:15:53.804Z,10.07
2018-09-30T14:18:22.492Z,13.90
2018-09-30T14:20:51.210Z,11.60
2018-09-30T14:23:19.889Z,12.93
2018-09-30T14:25:48.706Z,12.10
2018-09-30T14:28:17.505Z,9.97
2018-09-30T14:30:46.167Z,12.40
2018-09-30T14:33:14.853Z,12.70
2018-09-30T14:35:43.590Z,13.73
2018-09-30T14:38:12.275Z,12.97
2018-09-30T14:40:40.936Z,13.20
2018-09-30T14:43:09.687Z,13.73
2018-09-30T14:45:38.368Z,15.03
2018-09-30T14:48:07.261Z,17.37
2018-09-30T14:50:36.027Z,16.10
2018-09-30T14:53:04.820Z,13.17
2018-09-30T14:55:33.581Z,16.03
2018-09-30T14:58:02.295Z,33.30
2018-09-30T15:00:31.266Z,16.47
2018-09-30T15:02:59.929Z,12.07
2018-09-30T15:05:28.666Z,13.37
2018-09-30T15:07:57.370Z,11.27
2018-09-30T15:10:26.197Z,11.73
2018-09-30T15:12:54.860Z,14.10
2018-09-30T15:15:23.611Z,10.67
2018-09-30T15:17:52.341Z,11.80
2018-09-30T15:20:21.081Z,11.27
2018-09-30T15:22:49.723Z,15.67
2018-09-30T15:25:18.549Z,15.00
2018-09-30T15:27:47.352Z,13.13
2018-09-30T15:30:16.036Z,11.37
2018-09-30T15:32:44.741Z,13.10
2018-09-30T15:35:13.415Z,11.63
2018-09-30T15:37:42.079Z,11.93
2018-09-30T15:40:10.790Z,12.40
2018-09-30T15:42:39.583Z,16.07
2018-09-30T15:45:08.337Z,12.23
2018-09-30T15:47:37.096Z,10.73
2018-09-30T15:50:06.343Z,18.07
2018-09-30T15:52:35.095Z,10.73
2018-09-30T15:55:03.845Z,12.27
2018-09-30T15:57:32.567Z,10.90
2018-09-30T16:00:01.619Z,10.67
2018-09-30T16:02:30.280Z,10.67
2018-09-30T16:04:59.244Z,10.17
2018-09-30T16:07:28.096Z,10.63
2018-09-30T16:09:56.888Z,13.07
2018-09-30T16:12:25.618Z,10.03
2018-09-30T16:14:54.634Z,11.30
2018-09-30T16:17:23.367Z,12.00
2018-09-30T16:19:52.120Z,11.07
2018-09-30T16:22:20.943Z,12.00
2018-09-30T16:24:49.718Z,9.93
2018-09-30T16:27:18.495Z,11.50
2018-09-30T16:29:47.264Z,14.23
2018-09-30T16:32:15.985Z,13.07
2018-09-30T16:34:44.914Z,11.70
2018-09-30T16:37:14.285Z,11.50
2018-09-30T16:39:43.033Z,14.37
2018-09-30T16:42:12.146Z,10.27
2018-09-30T16:44:40.927Z,11.33
2018-09-30T16:47:10.145Z,11.23
2018-09-30T16:49:39.040Z,9.20
2018-09-30T16:52:13.624Z,12.00
2018-09-30T16:54:42.544Z,10.00
2018-09-30T16:57:11.368Z,12.40
2018-09-30T16:59:40.246Z,10.30
2018-09-30T17:02:09.746Z,10.73
2018-09-30T17:04:38.478Z,8.97
2018-09-30T17:07:07.157Z,8.67
2018-09-30T17:09:35.929Z,9.73
2018-09-30T17:12:04.686Z,9.40
2018-09-30T17:14:33.465Z,9.90
2018-09-30T17:17:02.332Z,14.33
2018-09-30T17:19:31.020Z,11.00
2018-09-30T17:21:59.800Z,14.37
2018-09-30T17:24:28.577Z,10.17
2018-09-30T17:26:57.361Z,14.03
2018-09-30T17:29:26.060Z,10.80
2018-09-30T17:31:54.883Z,10.37
2018-09-30T17:34:23.585Z,7.90
2018-09-30T17:36:52.343Z,9.03
2018-09-30T17:39:21.060Z,10.17
2018-09-30T17:41:49.873Z,9.43
